Time;durP1;ratioP1;P1;durP2;ratioP2;P2;SDS_P1;SDS_P2;PMS_P1;PMS_P2;Temp;Humidity;BMP_temperature;BMP_pressure;BME280_temperature;BME280_humidity;BME280_pressure;Samples;Min_cycle;Max_cycle;Signal;HPM_P1;HPM_P2
2021/04/18 00:00:21;;;;;;;9.35;2.83;;;11.30;64.70;;;;;;4986527;28;20350;-73
2021/04/18 00:02:48;;;;;;;10.27;3.03;;;11.30;64.80;;;;;;4971657;28;20035;-72
2021/04/18 00:05:15;;;;;;;9.75;3.17;;;11.20;64.70;;;;;;4986909;28;20483;-73
2021/04/18 00:07:42;;;;;;;8.03;2.33;;;11.20;64.90;;;;;;4973127;28;20033;-73
2021/04/18 00:10:09;;;;;;;7.75;2.72;;;11.20;64.90;;;;;;4971661;28;20273;-72
2021/04/18 00:12:35;;;;;;;11.98;2.80;;;11.20;65.10;;;;;;4971534;28;20486;-73
2021/04/18 00:15:01;;;;;;;9.48;2.47;;;11.20;65.10;;;;;;4971351;28;20026;-72
2021/04/18 00:17:27;;;;;;;6.97;2.22;;;11.10;65.40;;;;;;4971334;28;20054;-73
2021/04/18 00:19:52;;;;;;;7.95;2.60;;;11.10;65.50;;;;;;4972891;28;20026;-72
2021/04/18 00:22:18;;;;;;;13.48;2.70;;;11.10;65.50;;;;;;4971087;28;20628;-73
2021/04/18 00:24:43;;;;;;;7.57;2.40;;;11.00;65.60;;;;;;4971302;28;20027;-72
2021/04/18 00:27:09;;;;;;;9.05;2.50;;;11.00;65.90;;;;;;4971090;28;20465;-73
2021/04/18 00:29:35;;;;;;;9.18;2.55;;;11.00;65.90;;;;;;4971171;28;20058;-73
2021/04/18 00:32:00;;;;;;;7.32;2.17;;;10.90;65.70;;;;;;4972726;28;20026;-74
2021/04/18 00:34:26;;;;;;;6.45;2.25;;;11.00;65.70;;;;;;4971210;28;20039;-74
2021/04/18 00:36:53;;;;;;;9.68;2.90;;;10.90;66.10;;;;;;4971082;28;20443;-73
2021/04/18 00:39:19;;;;;;;12.03;2.93;;;10.90;65.90;;;;;;4971137;28;20581;-73
2021/04/18 00:41:45;;;;;;;8.98;2.75;;;11.00;66.20;;;;;;4985369;28;20759;-73
2021/04/18 00:44:11;;;;;;;11.75;2.65;;;10.90;66.40;;;;;;4985573;28;20604;-73
2021/04/18 00:46:37;;;;;;;5.68;2.50;;;10.90;66.20;;;;;;4972381;28;20019;-72
2021/04/18 00:49:02;;;;;;;5.50;2.72;;;11.00;66.20;;;;;;4970928;28;20125;-74
2021/04/18 00:51:28;;;;;;;11.30;2.88;;;11.00;66.40;;;;;;4970844;28;20118;-73
2021/04/18 00:53:54;;;;;;;9.25;2.67;;;11.00;66.20;;;;;;4970836;28;20035;-73
2021/04/18 00:56:19;;;;;;;8.80;3.05;;;10.90;66.30;;;;;;4970627;28;20030;-74
2021/04/18 00:58:46;;;;;;;4.70;2.28;;;11.00;66.40;;;;;;4970691;28;20491;-73
2021/04/18 01:01:11;;;;;;;4.93;2.72;;;11.00;66.40;;;;;;4970300;28;20074;-73
2021/04/18 01:03:37;;;;;;;14.13;2.65;;;11.10;66.00;;;;;;4970527;28;20070;-73
2021/04/18 01:06:03;;;;;;;6.97;2.90;;;11.10;66.00;;;;;;4970679;28;20361;-74
2021/04/18 01:08:29;;;;;;;7.15;2.60;;;11.00;66.10;;;;;;4985817;28;20035;-73
2021/04/18 01:10:55;;;;;;;7.60;3.55;;;11.10;66.40;;;;;;4972082;28;20520;-74
2021/04/18 01:13:21;;;;;;;9.70;3.08;;;11.00;66.50;;;;;;4970904;28;20042;-73
2021/04/18 01:15:49;;;;;;;7.18;2.50;;;11.10;66.50;;;;;;4970642;28;20038;-73
2021/04/18 01:18:15;;;;;;;9.40;3.17;;;11.00;66.80;;;;;;4970441;28;20039;-73
2021/04/18 01:20:44;;;;;;;9.20;3.20;;;11.00;66.60;;;;;;4985416;28;20039;-73
2021/04/18 01:23:09;;;;;;;9.43;3.00;;;11.00;66.60;;;;;;4970469;28;20520;-73
2021/04/18 01:25:44;;;;;;;14.68;2.95;;;11.00;66.90;;;;;;4972243;28;20071;-73
2021/04/18 01:28:10;;;;;;;9.50;2.80;;;11.00;67.00;;;;;;4985272;28;20109;-74
2021/04/18 01:30:36;;;;;;;8.57;3.20;;;11.00;67.30;;;;;;4970921;28;20042;-73
2021/04/18 01:33:03;;;;;;;8.55;2.75;;;11.00;66.80;;;;;;4970406;28;20110;-73
2021/04/18 01:35:30;;;;;;;9.13;2.78;;;11.00;67.10;;;;;;4980757;28;20030;-73
2021/04/18 01:37:55;;;;;;;14.35;3.17;;;11.00;67.00;;;;;;5010750;28;20179;-73
2021/04/18 01:40:23;;;;;;;14.10;3.30;;;11.00;67.50;;;;;;5009151;28;20462;-72
2021/04/18 01:42:49;;;;;;;6.90;2.80;;;11.00;67.50;;;;;;5009245;28;20053;-74
2021/04/18 01:45:17;;;;;;;9.18;3.42;;;11.00;68.20;;;;;;5009186;28;20029;-73
2021/04/18 01:47:44;;;;;;;10.35;2.85;;;11.00;67.70;;;;;;5009165;28;20041;-75
2021/04/18 01:50:14;;;;;;;7.38;2.67;;;10.90;67.70;;;;;;5007898;28;20030;-74
2021/04/18 01:52:40;;;;;;;6.15;2.97;;;10.90;67.60;;;;;;5010859;28;20025;-73
2021/04/18 01:55:07;;;;;;;9.60;2.60;;;10.80;67.80;;;;;;5007870;28;20034;-73
2021/04/18 01:57:33;;;;;;;9.05;3.22;;;10.80;68.20;;;;;;5008891;28;20068;-73
2021/04/18 01:59:59;;;;;;;7.25;2.47;;;10.90;67.90;;;;;;5008970;28;20038;-73
2021/04/18 02:02:25;;;;;;;10.05;2.65;;;10.90;67.70;;;;;;5008920;28;20074;-73
2021/04/18 02:04:53;;;;;;;6.90;2.75;;;10.90;67.70;;;;;;5010520;28;20050;-73
2021/04/18 02:07:18;;;;;;;10.57;2.78;;;10.90;67.90;;;;;;5008718;28;20030;-72
2021/04/18 02:09:47;;;;;;;5.03;2.38;;;10.90;68.20;;;;;;5009162;28;20034;-73
2021/04/18 02:12:12;;;;;;;8.10;2.60;;;10.90;68.20;;;;;;5011331;28;20430;-73
2021/04/18 02:14:38;;;;;;;7.82;2.90;;;10.90;68.30;;;;;;5011718;28;20125;-72
2021/04/18 02:17:04;;;;;;;10.45;3.20;;;10.90;68.50;;;;;;5014011;28;20037;-73
2021/04/18 02:19:31;;;;;;;5.43;2.80;;;10.90;68.20;;;;;;5012522;28;20046;-71
2021/04/18 02:21:57;;;;;;;10.20;2.83;;;10.90;68.20;;;;;;5012265;28;20046;-71
2021/04/18 02:24:23;;;;;;;4.28;2.72;;;10.70;68.90;;;;;;5012525;28;20041;-73
2021/04/18 02:26:49;;;;;;;11.77;3.20;;;10.80;68.70;;;;;;5012465;28;20117;-71
2021/04/18 02:29:15;;;;;;;9.57;2.83;;;10.70;68.60;;;;;;5012069;28;20022;-74
2021/04/18 02:31:40;;;;;;;8.38;3.25;;;10.60;68.80;;;;;;5013741;28;20331;-72
2021/04/18 02:34:06;;;;;;;9.20;2.88;;;10.60;68.90;;;;;;5011316;28;20124;-73
2021/04/18 02:36:32;;;;;;;9.25;3.13;;;10.60;69.20;;;;;;5012094;28;20038;-73
2021/04/18 02:38:58;;;;;;;11.40;2.85;;;10.50;69.60;;;;;;5012155;28;20034;-73
2021/04/18 02:41:23;;;;;;;4.90;2.60;;;10.60;69.30;;;;;;5011102;28;20113;-72
2021/04/18 02:43:49;;;;;;;6.90;3.00;;;10.60;69.40;;;;;;5012715;28;20034;-72
2021/04/18 02:46:15;;;;;;;10.00;2.45;;;10.60;69.50;;;;;;5012249;28;20044;-73
2021/04/18 02:48:41;;;;;;;7.63;2.72;;;10.60;69.70;;;;;;5012227;28;20431;-73
2021/04/18 02:51:06;;;;;;;7.28;2.78;;;10.60;69.60;;;;;;5010853;28;20038;-74
2021/04/18 02:53:32;;;;;;;12.55;3.35;;;10.60;69.90;;;;;;5011732;28;20376;-74
2021/04/18 02:55:58;;;;;;;8.30;2.83;;;10.70;69.70;;;;;;5013194;28;20589;-74
2021/04/18 02:58:24;;;;;;;8.55;3.15;;;10.60;69.90;;;;;;5012147;28;20030;-72
2021/04/18 03:00:49;;;;;;;5.68;3.00;;;10.60;70.30;;;;;;5010529;28;20069;-73
2021/04/18 03:03:15;;;;;;;7.45;3.17;;;10.60;70.70;;;;;;5010399;28;20064;-71
2021/04/18 03:05:40;;;;;;;12.38;3.17;;;10.60;70.90;;;;;;5011803;28;20026;-71
2021/04/18 03:08:06;;;;;;;7.57;2.97;;;10.60;71.10;;;;;;5010453;28;20428;-72
2021/04/18 03:10:32;;;;;;;9.95;3.38;;;10.60;71.60;;;;;;5013357;28;20387;-72
2021/04/18 03:12:58;;;;;;;9.27;3.55;;;10.50;72.00;;;;;;5012130;28;20030;-72
2021/04/18 03:15:24;;;;;;;8.30;2.97;;;10.50;72.20;;;;;;5010701;28;20517;-73
2021/04/18 03:17:50;;;;;;;9.63;3.00;;;10.50;72.30;;;;;;5010544;28;20026;-73
2021/04/18 03:20:16;;;;;;;7.10;2.92;;;10.50;72.60;;;;;;5011318;28;20030;-72
2021/04/18 03:22:42;;;;;;;9.23;3.75;;;10.40;73.00;;;;;;5012411;28;20063;-73
2021/04/18 03:25:09;;;;;;;8.18;3.72;;;10.40;73.10;;;;;;5011642;28;20026;-72
2021/04/18 03:27:35;;;;;;;6.57;2.80;;;10.30;73.60;;;;;;5011294;28;20117;-73
2021/04/18 03:30:01;;;;;;;8.73;2.92;;;10.40;73.80;;;;;;5011253;28;20117;-72
2021/04/18 03:32:27;;;;;;;8.18;3.60;;;10.40;74.30;;;;;;5011060;28;20045;-73
2021/04/18 03:34:52;;;;;;;10.85;3.53;;;10.40;74.50;;;;;;5011751;28;20164;-72
2021/04/18 03:37:18;;;;;;;7.25;3.35;;;10.40;74.70;;;;;;5010972;28;20042;-74
2021/04/18 03:39:44;;;;;;;8.07;3.45;;;10.40;74.60;;;;;;5011158;28;20042;-73
2021/04/18 03:42:10;;;;;;;8.60;3.35;;;10.40;75.30;;;;;;5011007;28;20052;-73
2021/04/18 03:44:36;;;;;;;8.50;3.28;;;10.30;75.80;;;;;;5010986;28;20459;-73
2021/04/18 03:47:02;;;;;;;7.93;3.40;;;10.40;76.30;;;;;;5012562;28;20164;-73
2021/04/18 03:49:28;;;;;;;6.82;3.40;;;10.40;76.80;;;;;;5009910;28;20456;-73
2021/04/18 03:51:54;;;;;;;7.80;3.47;;;10.40;77.00;;;;;;5011172;28;20109;-72
2021/04/18 03:54:21;;;;;;;9.35;3.20;;;10.40;77.50;;;;;;5011072;28;20099;-72
2021/04/18 03:56:48;;;;;;;8.20;3.57;;;10.40;77.30;;;;;;5010891;28;20464;-73
2021/04/18 03:59:14;;;;;;;8.43;3.65;;;10.40;77.80;;;;;;5010508;28;20121;-71
2021/04/18 04:01:40;;;;;;;7.80;3.65;;;10.40;78.00;;;;;;5012398;28;20026;-73
2021/04/18 04:04:05;;;;;;;11.40;3.67;;;10.30;78.40;;;;;;5009446;28;20044;-72
2021/04/18 04:06:31;;;;;;;6.28;3.22;;;10.40;78.70;;;;;;5009108;28;20478;-72
2021/04/18 04:08:57;;;;;;;7.70;3.50;;;10.30;79.10;;;;;;5009185;28;20029;-73
2021/04/18 04:11:22;;;;;;;15.15;3.58;;;10.30;79.30;;;;;;5010539;28;20041;-73
2021/04/18 04:13:48;;;;;;;9.82;3.38;;;10.30;79.60;;;;;;5027435;28;20125;-73
2021/04/18 04:16:14;;;;;;;13.60;3.97;;;10.30;79.70;;;;;;5010440;28;20042;-73
2021/04/18 04:18:39;;;;;;;7.25;3.25;;;10.30;79.70;;;;;;5010348;28;20042;-73
2021/04/18 04:21:05;;;;;;;14.90;3.72;;;10.30;79.70;;;;;;5010137;28;20730;-74
2021/04/18 04:23:31;;;;;;;8.65;3.92;;;10.20;80.30;;;;;;5010218;28;20042;-73
2021/04/18 04:25:57;;;;;;;6.93;3.50;;;10.30;80.50;;;;;;5011628;28;20040;-74
2021/04/18 04:28:22;;;;;;;9.38;4.03;;;10.20;81.10;;;;;;5009828;28;20403;-73
2021/04/18 04:30:48;;;;;;;11.40;3.72;;;10.20;81.40;;;;;;5010251;28;20026;-73
2021/04/18 04:33:14;;;;;;;11.52;3.50;;;10.20;81.60;;;;;;5009870;28;20030;-72
2021/04/18 04:35:40;;;;;;;7.65;3.17;;;10.20;81.80;;;;;;5008224;28;20129;-73
2021/04/18 04:38:06;;;;;;;14.93;4.22;;;10.30;82.10;;;;;;5009694;28;20117;-70
2021/04/18 04:40:32;;;;;;;12.20;4.38;;;10.20;82.50;;;;;;5012140;28;20021;-73
2021/04/18 04:42:57;;;;;;;9.93;3.97;;;10.30;82.50;;;;;;5009789;28;20057;-73
2021/04/18 04:45:23;;;;;;;8.77;4.05;;;10.30;82.50;;;;;;5009597;28;20069;-74
2021/04/18 04:47:49;;;;;;;11.63;4.45;;;10.30;83.20;;;;;;5009940;28;20030;-74
2021/04/18 04:50:14;;;;;;;8.55;4.05;;;10.30;83.40;;;;;;5009628;28;20132;-72
2021/04/18 04:52:40;;;;;;;11.65;4.30;;;10.30;83.50;;;;;;5011593;28;20057;-74
2021/04/18 04:55:06;;;;;;;14.10;4.20;;;10.30;83.60;;;;;;5009860;28;20033;-74
2021/04/18 04:57:32;;;;;;;9.15;4.60;;;10.30;83.70;;;;;;5008761;28;20037;-74
2021/04/18 04:59:58;;;;;;;9.00;4.10;;;10.30;84.20;;;;;;5008674;28;20133;-75
2021/04/18 05:02:23;;;;;;;18.80;4.10;;;10.30;84.00;;;;;;5009781;28;20037;-73
2021/04/18 05:04:49;;;;;;;12.55;4.63;;;10.30;84.40;;;;;;5011287;28;20021;-74
2021/04/18 05:07:15;;;;;;;11.18;4.35;;;10.30;85.00;;;;;;5009396;28;20034;-73
2021/04/18 05:09:40;;;;;;;16.15;4.30;;;10.30;85.00;;;;;;5009641;28;20049;-75
2021/04/18 05:12:08;;;;;;;12.30;4.15;;;10.30;85.30;;;;;;5009279;28;20034;-74
2021/04/18 05:14:33;;;;;;;14.55;5.10;;;10.30;85.70;;;;;;5009380;28;20030;-75
2021/04/18 05:16:59;;;;;;;8.85;4.32;;;10.40;85.90;;;;;;5010945;28;20030;-74
2021/04/18 05:19:25;;;;;;;11.82;4.60;;;10.50;86.20;;;;;;5009653;28;20045;-75
2021/04/18 05:21:50;;;;;;;9.77;4.45;;;10.40;86.10;;;;;;5008312;28;20034;-73
2021/04/18 05:24:16;;;;;;;15.25;4.88;;;10.40;86.80;;;;;;5008172;28;20042;-75
2021/04/18 05:26:42;;;;;;;11.68;4.50;;;10.40;86.90;;;;;;5009021;28;20049;-75
2021/04/18 05:29:07;;;;;;;11.30;5.07;;;10.50;86.70;;;;;;5009271;28;20383;-74
2021/04/18 05:31:33;;;;;;;11.50;4.43;;;10.40;86.90;;;;;;5010887;28;20645;-73
2021/04/18 05:33:59;;;;;;;9.70;5.20;;;10.50;86.90;;;;;;5009292;28;20141;-74
2021/04/18 05:36:24;;;;;;;18.55;4.82;;;10.50;87.20;;;;;;5009325;28;20042;-73
2021/04/18 05:38:50;;;;;;;12.77;4.90;;;10.50;87.30;;;;;;5007981;28;20030;-75
2021/04/18 05:41:15;;;;;;;15.98;5.47;;;10.60;87.30;;;;;;5009027;28;20140;-73
2021/04/18 05:43:41;;;;;;;12.60;4.35;;;10.60;87.30;;;;;;5010683;28;20038;-74
2021/04/18 05:46:07;;;;;;;8.75;4.60;;;10.70;86.50;;;;;;5011126;28;20034;-74
2021/04/18 05:48:32;;;;;;;17.55;5.45;;;10.70;86.80;;;;;;5013207;28;20373;-73
2021/04/18 05:50:58;;;;;;;18.60;5.07;;;10.70;87.00;;;;;;5013321;28;20141;-73
2021/04/18 05:53:23;;;;;;;12.73;4.93;;;10.70;87.20;;;;;;5013102;28;20101;-74
2021/04/18 05:55:49;;;;;;;15.27;5.47;;;10.70;87.40;;;;;;5013539;28;20026;-77
2021/04/18 05:58:16;;;;;;;15.32;5.93;;;10.70;87.70;;;;;;5013090;28;20061;-76
2021/04/18 06:00:43;;;;;;;11.82;5.90;;;10.70;87.90;;;;;;5012795;28;20471;-79
2021/04/18 06:03:08;;;;;;;13.30;5.15;;;10.70;88.40;;;;;;5012873;28;20076;-75
2021/04/18 06:05:34;;;;;;;12.23;5.30;;;10.80;88.10;;;;;;5012895;28;20061;-77
2021/04/18 06:08:00;;;;;;;15.77;5.55;;;10.80;88.20;;;;;;5014382;28;20030;-76
2021/04/18 06:10:25;;;;;;;10.93;5.22;;;10.80;88.60;;;;;;5012805;28;20030;-79
2021/04/18 06:12:51;;;;;;;12.18;5.15;;;10.70;88.90;;;;;;5011467;28;20489;-73
2021/04/18 06:15:17;;;;;;;15.95;6.72;;;10.90;89.00;;;;;;5012607;28;20140;-76
2021/04/18 06:17:43;;;;;;;17.90;5.90;;;10.90;88.80;;;;;;5012404;28;20060;-74
2021/04/18 06:20:09;;;;;;;17.33;6.00;;;11.10;88.60;;;;;;5012260;28;20021;-74
2021/04/18 06:22:36;;;;;;;13.38;5.82;;;11.00;88.70;;;;;;5013738;28;20054;-73
2021/04/18 06:25:04;;;;;;;11.23;5.82;;;11.00;88.90;;;;;;5012242;28;20551;-79
2021/04/18 06:27:29;;;;;;;12.10;5.63;;;11.00;88.80;;;;;;5011022;28;20033;-76
2021/04/18 06:29:55;;;;;;;15.05;6.07;;;11.10;88.70;;;;;;5012246;28;20104;-78
2021/04/18 06:32:20;;;;;;;20.55;5.80;;;11.20;89.00;;;;;;5012321;28;20041;-78
2021/04/18 06:34:46;;;;;;;16.85;6.85;;;11.30;88.70;;;;;;5014002;28;20138;-76
2021/04/18 06:37:12;;;;;;;18.95;7.00;;;11.20;89.00;;;;;;5012368;28;20109;-76
2021/04/18 06:39:37;;;;;;;17.23;7.38;;;11.20;89.20;;;;;;5027675;28;20037;-75
2021/04/18 06:42:04;;;;;;;14.57;7.15;;;11.40;89.00;;;;;;5011991;28;20045;-76
2021/04/18 06:44:30;;;;;;;16.35;7.75;;;11.30;89.50;;;;;;5011496;28;20120;-77
2021/04/18 06:46:59;;;;;;;18.13;7.63;;;11.20;89.70;;;;;;5013438;28;20021;-79
2021/04/18 06:49:28;;;;;;;17.50;8.05;;;11.30;89.60;;;;;;4992634;28;20087;-75
2021/04/18 06:51:56;;;;;;;18.65;8.27;;;11.40;89.50;;;;;;4973368;28;20061;-76
2021/04/18 06:54:23;;;;;;;16.50;7.25;;;11.50;89.50;;;;;;4973279;28;20038;-77
2021/04/18 06:56:49;;;;;;;13.27;7.38;;;11.60;89.50;;;;;;4971941;28;20492;-75
2021/04/18 06:59:15;;;;;;;21.05;6.93;;;11.70;88.70;;;;;;4972876;28;20031;-72
2021/04/18 07:01:41;;;;;;;21.23;7.90;;;11.70;88.40;;;;;;4974389;28;20090;-74
2021/04/18 07:04:15;;;;;;;16.85;7.57;;;11.80;88.40;;;;;;4971929;28;20422;-75
2021/04/18 07:06:44;;;;;;;16.90;7.60;;;11.80;88.40;;;;;;4972597;28;20035;-75
2021/04/18 07:09:11;;;;;;;18.23;8.32;;;11.80;88.20;;;;;;4971823;28;20381;-77
2021/04/18 07:11:53;;;;;;;27.02;9.27;;;11.90;87.80;;;;;;4972474;28;20096;-75
2021/04/18 07:14:23;;;;;;;17.77;7.70;;;11.90;88.00;;;;;;4972691;28;20019;-75
2021/04/18 07:16:51;;;;;;;15.15;7.95;;;12.00;87.60;;;;;;4974067;28;20050;-77
2021/04/18 07:19:37;;;;;;;18.50;8.48;;;12.00;87.50;;;;;;4972515;28;20480;-78
2021/04/18 07:22:03;;;;;;;18.25;8.82;;;12.00;87.60;;;;;;4972583;28;20369;-77
2021/04/18 07:24:31;;;;;;;19.35;7.93;;;12.10;87.30;;;;;;4971918;28;20131;-78
2021/04/18 07:27:03;;;;;;;18.77;8.13;;;12.30;87.20;;;;;;4972871;28;20472;-76
2021/04/18 07:29:31;;;;;;;22.90;8.90;;;12.40;86.90;;;;;;4971397;28;20485;-75
2021/04/18 07:31:59;;;;;;;20.63;8.25;;;12.50;86.70;;;;;;4973998;28;20437;-76
2021/04/18 07:34:26;;;;;;;22.77;8.65;;;12.50;86.10;;;;;;4971673;28;20076;-77
2021/04/18 07:37:07;;;;;;;18.30;8.20;;;12.50;86.30;;;;;;4972065;28;20181;-77
2021/04/18 07:39:59;;;;;;;17.67;7.53;;;12.70;85.80;;;;;;4972514;28;20047;-77
2021/04/18 07:42:42;;;;;;;12.32;7.25;;;12.70;85.50;;;;;;4972046;28;20113;-75
2021/04/18 07:45:10;;;;;;;24.33;8.00;;;12.90;85.80;;;;;;4971979;28;20035;-74
2021/04/18 07:47:38;;;;;;;19.02;8.18;;;13.10;84.90;;;;;;4971948;28;20418;-74
2021/04/18 07:50:15;;;;;;;;;;;13.30;84.90;;;;;;4974079;28;20023;-74
2021/04/18 07:52:42;;;;;;;17.40;7.93;;;13.40;84.10;;;;;;4972529;28;19910;-75
2021/04/18 07:55:10;;;;;;;12.70;7.47;;;13.40;83.70;;;;;;4972189;28;20493;-74
2021/04/18 07:57:36;;;;;;;19.90;8.40;;;13.40;83.80;;;;;;4972103;28;20102;-72
2021/04/18 08:00:04;;;;;;;18.20;8.18;;;13.50;83.50;;;;;;4971553;28;20101;-74
2021/04/18 08:02:31;;;;;;;17.20;8.73;;;13.60;83.60;;;;;;4971229;28;20129;-75
2021/04/18 08:04:57;;;;;;;18.17;8.35;;;13.70;83.00;;;;;;4973034;28;20037;-81
2021/04/18 08:07:26;;;;;;;21.05;8.50;;;14.00;83.10;;;;;;4987012;28;20038;-74
2021/04/18 08:10:22;;;;;;;19.35;7.50;;;14.80;83.00;;;;;;4971413;28;20049;-74
2021/04/18 08:13:24;;;;;;;14.25;7.78;;;16.10;78.30;;;;;;4966632;28;20118;-76
2021/04/18 08:15:56;;;;;;;17.05;8.00;;;17.10;74.90;;;;;;4967604;28;20134;-77
2021/04/18 08:18:28;;;;;;;16.13;6.82;;;18.00;74.10;;;;;;4971383;28;20054;-76
2021/04/18 08:20:54;;;;;;;15.35;5.88;;;19.60;67.80;;;;;;4971210;28;20197;-80
2021/04/18 08:23:21;;;;;;;16.60;7.50;;;20.30;65.50;;;;;;4970206;28;20465;-74
2021/04/18 08:26:10;;;;;;;15.55;7.30;;;21.10;62.30;;;;;;4972990;28;20049;-73
2021/04/18 08:28:51;;;;;;;16.30;7.32;;;21.30;60.20;;;;;;4971715;28;20053;-74
2021/04/18 08:31:17;;;;;;;14.48;6.82;;;21.30;58.80;;;;;;4971032;28;20066;-75
2021/04/18 08:33:54;;;;;;;13.18;7.03;;;21.30;57.70;;;;;;4970030;28;20058;-74
2021/04/18 08:36:26;;;;;;;15.00;7.25;;;21.50;57.20;;;;;;4970548;28;20031;-73
2021/04/18 08:39:00;;;;;;;11.68;6.97;;;21.80;56.10;;;;;;4970731;28;20434;-79
2021/04/18 08:41:50;;;;;;;15.57;6.65;;;21.40;55.30;;;;;;4970791;28;20105;-78
2021/04/18 08:44:25;;;;;;;14.38;6.90;;;21.70;54.70;;;;;;4967148;28;20066;-76
2021/04/18 08:46:55;;;;;;;13.30;6.78;;;21.50;55.00;;;;;;4991572;28;20023;-74
2021/04/18 08:49:32;;;;;;;17.20;7.53;;;21.40;55.10;;;;;;4989977;28;20030;-72
2021/04/18 08:52:01;;;;;;;16.98;6.70;;;21.40;54.60;;;;;;4988682;28;20041;-74
2021/04/18 08:54:30;;;;;;;15.75;6.32;;;21.50;54.60;;;;;;4989119;28;20400;-75
2021/04/18 08:56:59;;;;;;;19.13;8.32;;;21.50;54.10;;;;;;4990474;28;20346;-76
2021/04/18 08:59:25;;;;;;;14.43;6.53;;;21.20;54.00;;;;;;4989881;28;20106;-74
2021/04/18 09:01:59;;;;;;;13.20;6.80;;;20.90;54.50;;;;;;4991019;28;20041;-76
2021/04/18 09:04:26;;;;;;;12.27;6.40;;;21.00;54.70;;;;;;4987358;28;20421;-74
2021/04/18 09:06:52;;;;;;;14.07;6.28;;;22.00;54.50;;;;;;4989550;28;20076;-72
2021/04/18 09:09:18;;;;;;;13.07;6.53;;;23.00;52.80;;;;;;4989252;28;20064;-73
2021/04/18 09:11:48;;;;;;;11.65;6.35;;;23.70;50.80;;;;;;4988622;28;20046;-73
2021/04/18 09:14:24;;;;;;;11.40;6.05;;;24.10;49.50;;;;;;4989822;28;20452;-73
2021/04/18 09:16:50;;;;;;;15.50;6.57;;;23.40;48.80;;;;;;4991736;28;20018;-73
2021/04/18 09:19:28;;;;;;;13.18;6.15;;;24.50;48.70;;;;;;4990238;28;20062;-73
2021/04/18 09:21:57;;;;;;;;;;;25.20;47.60;;;;;;4996405;28;20061;-76
2021/04/18 09:24:23;;;;;;;14.07;6.00;;;25.90;46.90;;;;;;4995209;28;20270;-75
2021/04/18 09:27:05;;;;;;;17.55;6.45;;;26.60;44.90;;;;;;4995061;28;20034;-72
2021/04/18 09:29:32;;;;;;;12.00;6.07;;;26.80;44.50;;;;;;4996222;28;20114;-73
2021/04/18 09:32:02;;;;;;;13.32;6.28;;;26.80;43.20;;;;;;4997560;28;20030;-75
2021/04/18 09:34:29;;;;;;;11.82;6.63;;;26.30;43.10;;;;;;4996124;28;20042;-74
2021/04/18 09:36:56;;;;;;;13.95;5.90;;;25.60;42.40;;;;;;4996038;28;20034;-74
2021/04/18 09:39:27;;;;;;;10.65;5.88;;;25.70;43.70;;;;;;4995762;28;20356;-74
2021/04/18 09:41:53;;;;;;;13.15;5.93;;;25.70;43.10;;;;;;4995856;28;20034;-75
2021/04/18 09:44:43;;;;;;;12.82;6.03;;;25.70;43.60;;;;;;4995353;28;20026;-74
2021/04/18 09:47:26;;;;;;;12.48;6.07;;;25.30;43.50;;;;;;4995839;28;20014;-74
2021/04/18 09:49:55;;;;;;;13.73;6.03;;;25.00;43.60;;;;;;4997847;28;20363;-74
2021/04/18 09:52:28;;;;;;;16.60;6.32;;;23.80;44.00;;;;;;4996022;28;20046;-73
2021/04/18 09:55:05;;;;;;;15.00;7.10;;;23.70;44.30;;;;;;4996204;28;20066;-77
2021/04/18 09:57:44;;;;;;;10.77;5.90;;;22.60;45.90;;;;;;4994779;28;20052;-73
2021/04/18 10:00:24;;;;;;;13.35;6.07;;;22.80;46.60;;;;;;4995630;28;20093;-74
2021/04/18 10:03:06;;;;;;;14.20;6.53;;;22.70;47.00;;;;;;4994497;28;20419;-74
2021/04/18 10:05:35;;;;;;;16.83;6.88;;;23.10;47.20;;;;;;4996079;28;20041;-71
2021/04/18 10:08:21;;;;;;;11.13;6.15;;;23.80;46.60;;;;;;4997471;28;20076;-73
2021/04/18 10:10:55;;;;;;;11.77;5.68;;;24.40;46.20;;;;;;4995978;28;20034;-80
2021/04/18 10:13:36;;;;;;;12.65;5.78;;;25.20;44.90;;;;;;4996073;28;20060;-79
2021/04/18 10:16:07;;;;;;;15.38;5.78;;;25.60;44.10;;;;;;4995820;28;20145;-79
2021/04/18 10:18:33;;;;;;;10.02;5.53;;;25.70;43.20;;;;;;4995839;28;20396;-76
2021/04/18 10:21:21;;;;;;;18.15;6.35;;;26.60;42.90;;;;;;4994694;28;20037;-79
2021/04/18 10:23:49;;;;;;;11.93;6.13;;;26.90;41.00;;;;;;4995536;28;20034;-77
2021/04/18 10:26:18;;;;;;;;;;;25.40;41.70;;;;;;4996676;28;20018;-79
2021/04/18 10:28:44;;;;;;;12.98;6.55;;;26.00;42.70;;;;;;4997309;28;19905;-79
2021/04/18 10:31:13;;;;;;;11.05;5.65;;;26.70;41.90;;;;;;4995828;28;20034;-78
2021/04/18 10:33:38;;;;;;;11.13;4.93;;;27.00;41.50;;;;;;4988778;28;20361;-76
2021/04/18 10:36:04;;;;;;;10.48;5.78;;;26.60;41.60;;;;;;4992908;28;20042;-74
2021/04/18 10:38:30;;;;;;;11.85;5.80;;;26.10;41.80;;;;;;4992449;28;20061;-76
2021/04/18 10:40:56;;;;;;;13.38;6.20;;;26.10;41.90;;;;;;4994184;28;20030;-74
2021/04/18 10:43:22;;;;;;;15.93;7.05;;;26.10;41.70;;;;;;4992521;28;20049;-76
2021/04/18 10:45:48;;;;;;;12.85;5.55;;;25.80;41.10;;;;;;4993028;28;20042;-81
2021/04/18 10:48:13;;;;;;;11.57;5.75;;;25.70;42.00;;;;;;4992373;28;20144;-74
2021/04/18 10:50:39;;;;;;;13.48;5.53;;;24.90;42.90;;;;;;4992576;28;20092;-80
2021/04/18 10:53:04;;;;;;;12.55;6.43;;;24.40;44.20;;;;;;4993737;28;20034;-73
2021/04/18 10:55:30;;;;;;;10.02;5.43;;;23.90;44.90;;;;;;4992294;28;20043;-76
2021/04/18 10:57:56;;;;;;;12.50;6.03;;;23.00;46.30;;;;;;4992497;28;20038;-75
2021/04/18 11:00:24;;;;;;;15.35;5.95;;;22.40;46.70;;;;;;4992844;28;20058;-72
2021/04/18 11:02:49;;;;;;;8.85;5.10;;;21.90;47.80;;;;;;4992660;28;20145;-82
2021/04/18 11:05:16;;;;;;;13.18;5.28;;;21.60;48.60;;;;;;4992390;28;20469;-82
2021/04/18 11:07:42;;;;;;;12.82;5.75;;;21.80;48.50;;;;;;4993698;28;20023;-83
2021/04/18 11:10:08;;;;;;;13.95;5.97;;;21.70;49.30;;;;;;4992300;28;20108;-83
2021/04/18 11:12:34;;;;;;;10.57;5.35;;;21.80;48.90;;;;;;4994399;28;20066;-80
2021/04/18 11:15:00;;;;;;;11.50;5.30;;;21.60;49.10;;;;;;4992375;28;20030;-73
2021/04/18 11:17:25;;;;;;;11.52;5.30;;;21.50;49.50;;;;;;4993141;28;20045;-71
2021/04/18 11:19:52;;;;;;;10.68;5.18;;;21.50;49.30;;;;;;4994245;28;20038;-76
2021/04/18 11:22:19;;;;;;;15.77;6.22;;;21.30;49.30;;;;;;4992249;28;20035;-77
2021/04/18 11:24:45;;;;;;;10.85;5.80;;;21.20;49.80;;;;;;4992760;28;20550;-78
2021/04/18 11:27:11;;;;;;;14.88;5.65;;;21.20;49.80;;;;;;4992508;28;20185;-76
2021/04/18 11:29:42;;;;;;;13.63;5.88;;;21.30;50.00;;;;;;4993700;28;20114;-76
2021/04/18 11:32:08;;;;;;;11.63;6.20;;;21.00;49.90;;;;;;4993952;28;20029;-77
2021/04/18 11:34:34;;;;;;;11.43;5.30;;;21.00;50.30;;;;;;4995248;28;20026;-79
2021/04/18 11:37:00;;;;;;;10.52;5.38;;;21.20;50.30;;;;;;4993705;28;20057;-78
2021/04/18 11:39:25;;;;;;;14.48;6.00;;;21.20;50.30;;;;;;4992474;28;20038;-79
2021/04/18 11:41:51;;;;;;;12.90;5.78;;;21.00;50.10;;;;;;4993306;28;20040;-79
2021/04/18 11:44:17;;;;;;;14.98;5.43;;;20.80;50.60;;;;;;4991134;28;20041;-78
2021/04/18 11:46:44;;;;;;;8.98;5.18;;;20.70;50.90;;;;;;4993416;28;20022;-78
2021/04/18 11:49:11;;;;;;;13.50;5.65;;;20.50;51.00;;;;;;4991776;28;20030;-78
2021/04/18 11:51:38;;;;;;;12.63;4.70;;;20.30;51.30;;;;;;4992020;28;20093;-77
2021/04/18 11:54:05;;;;;;;13.13;4.93;;;20.10;51.30;;;;;;4990182;28;20026;-77
2021/04/18 11:56:32;;;;;;;14.57;5.45;;;20.20;51.80;;;;;;4990195;28;20089;-77
2021/04/18 11:58:57;;;;;;;8.60;4.63;;;20.10;51.70;;;;;;4992798;28;20022;-76
2021/04/18 12:01:23;;;;;;;10.07;5.10;;;20.10;51.90;;;;;;4991348;28;20113;-77
2021/04/18 12:03:49;;;;;;;8.65;4.78;;;20.00;51.70;;;;;;4991318;28;20125;-77
2021/04/18 12:06:14;;;;;;;5.05;3.95;;;20.00;51.60;;;;;;4991458;28;20041;-74
2021/04/18 12:08:40;;;;;;;8.43;5.10;;;19.90;52.70;;;;;;4992909;28;20468;-79
2021/04/18 12:11:05;;;;;;;9.05;4.68;;;19.90;52.10;;;;;;4993946;28;20026;-78
2021/04/18 12:13:31;;;;;;;12.90;5.25;;;19.90;51.90;;;;;;4993097;28;20035;-76
2021/04/18 12:15:57;;;;;;;11.73;4.80;;;19.70;52.20;;;;;;4992766;28;20038;-77
2021/04/18 12:18:22;;;;;;;9.02;4.47;;;19.60;52.40;;;;;;4991518;28;20050;-77
2021/04/18 12:20:48;;;;;;;10.88;4.85;;;19.30;52.60;;;;;;4992541;28;20019;-77
2021/04/18 12:23:14;;;;;;;14.27;5.65;;;19.20;53.20;;;;;;4992583;28;20034;-78
2021/04/18 12:25:39;;;;;;;13.43;5.15;;;19.00;53.00;;;;;;4994407;28;20052;-79
2021/04/18 12:28:05;;;;;;;10.98;4.78;;;19.00;53.20;;;;;;4992567;28;20041;-77
2021/04/18 12:30:31;;;;;;;8.48;4.60;;;19.00;53.50;;;;;;4992761;28;20034;-80
2021/04/18 12:32:56;;;;;;;8.90;4.97;;;18.90;53.50;;;;;;4991103;28;20034;-78
2021/04/18 12:35:22;;;;;;;9.57;4.70;;;18.80;53.60;;;;;;4992052;28;20081;-76
2021/04/18 12:37:47;;;;;;;9.50;4.90;;;18.80;53.70;;;;;;4992881;28;20031;-76
2021/04/18 12:40:13;;;;;;;7.00;4.57;;;18.80;53.70;;;;;;4992004;28;20078;-76
2021/04/18 12:42:39;;;;;;;11.32;5.50;;;18.70;53.70;;;;;;4991369;28;20301;-77